createdAt,value
2022-11-14T00:02:26.460Z,9.90
2022-11-14T00:05:12.797Z,10.80
2022-11-14T00:07:59.220Z,11.47
2022-11-14T00:10:47.681Z,12.43
2022-11-14T00:13:33.999Z,11.63
2022-11-14T00:16:21.781Z,11.53
2022-11-14T00:19:08.549Z,10.93
2022-11-14T00:21:54.985Z,11.07
2022-11-14T00:24:41.415Z,11.27
2022-11-14T00:27:27.900Z,11.40
2022-11-14T00:30:14.709Z,11.70
2022-11-14T00:33:02.771Z,10.80
2022-11-14T00:35:54.056Z,9.90
2022-11-14T00:38:40.567Z,10.97
2022-11-14T00:41:27.317Z,10.83
2022-11-14T00:44:13.742Z,9.60
2022-11-14T00:47:00.302Z,9.10
2022-11-14T00:49:48.047Z,10.80
2022-11-14T00:52:34.329Z,9.50
2022-11-14T00:55:20.981Z,10.90
2022-11-14T00:58:07.213Z,10.83
2022-11-14T01:00:54.111Z,11.30
2022-11-14T01:03:40.818Z,10.27
2022-11-14T01:06:28.804Z,11.60
2022-11-14T01:09:15.082Z,11.67
2022-11-14T01:12:01.567Z,11.23
2022-11-14T01:14:48.366Z,10.73
2022-11-14T01:17:35.034Z,11.83
2022-11-14T01:20:21.653Z,11.73
2022-11-14T01:23:10.020Z,12.90
2022-11-14T01:26:02.007Z,12.03
2022-11-14T01:28:48.581Z,10.73
2022-11-14T01:31:34.928Z,11.63
2022-11-14T01:34:21.312Z,9.30
2022-11-14T01:37:07.631Z,10.47
2022-11-14T01:39:55.564Z,11.30
2022-11-14T01:42:42.442Z,9.70
2022-11-14T01:45:53.385Z,9.23
2022-11-14T01:48:43.766Z,10.27
2022-11-14T01:51:33.450Z,10.63
2022-11-14T01:54:23.786Z,10.17
2022-11-14T01:57:13.749Z,10.83
2022-11-14T02:00:05.271Z,10.93
2022-11-14T02:02:52.870Z,10.80
2022-11-14T02:05:39.473Z,9.83
2022-11-14T02:08:27.052Z,10.17
2022-11-14T02:11:13.825Z,9.87
2022-11-14T02:14:02.202Z,10.80
2022-11-14T02:17:14.302Z,11.10
2022-11-14T02:20:02.252Z,11.43
2022-11-14T02:22:52.843Z,10.63
2022-11-14T02:25:39.650Z,9.40
2022-11-14T02:28:26.797Z,10.80
2022-11-14T02:31:13.575Z,10.60
2022-11-14T02:34:00.475Z,10.20
2022-11-14T02:36:47.024Z,10.87
2022-11-14T02:39:35.031Z,10.37
2022-11-14T02:42:21.533Z,10.00
2022-11-14T02:45:09.304Z,9.50
2022-11-14T02:47:55.898Z,9.80
2022-11-14T02:50:42.782Z,10.63
2022-11-14T02:53:29.035Z,10.60
2022-11-14T02:56:17.057Z,10.13
2022-11-14T02:59:03.863Z,10.33
2022-11-14T03:01:50.180Z,10.07
2022-11-14T03:04:36.465Z,9.57
2022-11-14T03:07:23.105Z,10.17
2022-11-14T03:10:10.047Z,9.70
2022-11-14T03:12:58.382Z,10.80
2022-11-14T03:15:45.214Z,10.93
2022-11-14T03:18:31.910Z,10.60
2022-11-14T03:21:20.460Z,10.73
2022-11-14T03:24:07.912Z,10.27
2022-11-14T03:26:54.616Z,10.53
2022-11-14T03:29:42.535Z,10.23
2022-11-14T03:32:29.153Z,11.13
2022-11-14T03:35:15.815Z,9.80
2022-11-14T03:38:02.484Z,9.80
2022-11-14T03:40:48.813Z,9.20
2022-11-14T03:43:36.157Z,10.40
2022-11-14T03:46:24.120Z,9.87
2022-11-14T03:49:10.373Z,9.97
2022-11-14T03:51:56.739Z,10.70
2022-11-14T03:54:43.172Z,9.50
2022-11-14T03:57:29.412Z,10.17
2022-11-14T04:00:16.562Z,9.87
2022-11-14T04:03:05.167Z,10.97
2022-11-14T04:05:51.732Z,10.23
2022-11-14T04:08:40.239Z,10.70
2022-11-14T04:11:26.716Z,9.90
2022-11-14T04:14:13.265Z,11.83
2022-11-14T04:16:59.578Z,10.00
2022-11-14T04:19:47.222Z,9.33
2022-11-14T04:22:33.515Z,10.00
2022-11-14T04:25:19.828Z,9.70
2022-11-14T04:28:06.507Z,10.03
2022-11-14T04:30:54.106Z,9.50
2022-11-14T04:33:40.738Z,10.93
2022-11-14T04:36:28.474Z,9.97
2022-11-14T04:39:14.850Z,9.53
2022-11-14T04:42:01.241Z,9.77
2022-11-14T04:44:48.209Z,10.00
2022-11-14T04:47:34.785Z,11.20
2022-11-14T04:50:21.359Z,10.60
2022-11-14T04:53:09.174Z,9.23
2022-11-14T04:55:55.679Z,10.90
2022-11-14T04:58:42.055Z,10.13
2022-11-14T05:01:28.475Z,9.80
2022-11-14T05:04:15.510Z,10.43
2022-11-14T05:07:02.119Z,12.03
2022-11-14T05:09:50.079Z,10.53
2022-11-14T05:12:36.828Z,10.07
2022-11-14T05:15:23.825Z,10.37
2022-11-14T05:18:10.258Z,10.67
2022-11-14T05:20:59.352Z,10.43
2022-11-14T05:23:45.783Z,11.47
2022-11-14T05:26:33.791Z,11.10
2022-11-14T05:29:20.710Z,9.87
2022-11-14T05:32:08.596Z,10.23
2022-11-14T05:34:57.478Z,10.50
2022-11-14T05:37:43.741Z,10.40
2022-11-14T05:40:30.062Z,9.77
2022-11-14T05:43:17.641Z,9.97
2022-11-14T05:46:06.051Z,11.27
2022-11-14T05:48:52.298Z,10.93
2022-11-14T05:51:38.565Z,10.43
2022-11-14T05:54:24.821Z,10.37
2022-11-14T05:57:11.066Z,11.73
2022-11-14T05:59:59.754Z,10.00
2022-11-14T06:02:46.782Z,10.90
2022-11-14T06:05:35.314Z,10.70
2022-11-14T06:08:21.999Z,10.43
2022-11-14T06:11:10.488Z,10.40
2022-11-14T06:13:56.756Z,10.37
2022-11-14T06:16:44.475Z,10.00
2022-11-14T06:19:31.037Z,10.17
2022-11-14T06:22:17.281Z,10.53
2022-11-14T06:25:03.826Z,10.23
2022-11-14T06:27:50.338Z,11.23
2022-11-14T06:30:36.567Z,10.87
2022-11-14T06:33:24.683Z,10.70
2022-11-14T06:36:12.119Z,9.73
2022-11-14T06:38:58.755Z,9.30
2022-11-14T06:41:45.303Z,9.70
2022-11-14T06:44:32.035Z,9.57
2022-11-14T06:47:18.615Z,9.67
2022-11-14T06:50:07.573Z,9.47
2022-11-14T06:52:54.309Z,9.73
2022-11-14T06:55:40.655Z,10.40
2022-11-14T06:58:28.833Z,10.33
2022-11-14T07:01:17.469Z,10.23
2022-11-14T07:04:04.269Z,10.30
2022-11-14T07:06:51.982Z,10.17
2022-11-14T07:09:38.437Z,10.23
2022-11-14T07:12:24.870Z,9.23
2022-11-14T07:15:11.974Z,10.97
2022-11-14T07:17:59.517Z,10.53
2022-11-14T07:20:46.114Z,9.40
2022-11-14T07:23:34.725Z,10.30
2022-11-14T07:26:21.277Z,9.53
2022-11-14T07:29:07.751Z,9.57
2022-11-14T07:31:54.296Z,11.13
2022-11-14T07:34:40.712Z,10.43
2022-11-14T07:37:27.181Z,10.60
2022-11-14T07:40:15.219Z,10.87
2022-11-14T07:43:02.601Z,9.43
2022-11-14T07:45:49.468Z,9.43
2022-11-14T07:48:35.989Z,9.60
2022-11-14T07:51:22.380Z,10.33
2022-11-14T07:54:11.180Z,9.57
2022-11-14T07:56:59.014Z,9.93
2022-11-14T07:59:45.793Z,10.03
2022-11-14T08:02:32.284Z,9.87
2022-11-14T08:05:19.156Z,10.70
2022-11-14T08:08:06.261Z,9.40
2022-11-14T08:10:52.609Z,10.27
2022-11-14T08:13:40.611Z,9.60
2022-11-14T08:16:27.100Z,9.97
2022-11-14T08:19:13.386Z,9.73
2022-11-14T08:21:59.825Z,9.80
2022-11-14T08:24:46.513Z,10.30
2022-11-14T08:27:32.673Z,10.53
2022-11-14T08:30:20.473Z,10.63
2022-11-14T08:33:07.759Z,10.43
2022-11-14T08:35:53.983Z,11.50
2022-11-14T08:38:40.617Z,12.20
2022-11-14T08:41:27.302Z,10.43
2022-11-14T08:44:13.722Z,11.40
2022-11-14T08:47:02.171Z,11.00
2022-11-14T08:49:48.520Z,10.30
2022-11-14T08:52:34.958Z,10.57
2022-11-14T08:55:21.960Z,10.43
2022-11-14T08:58:08.669Z,10.37
2022-11-14T09:00:55.214Z,10.80
2022-11-14T09:03:43.084Z,10.17
2022-11-14T09:06:29.717Z,9.77
2022-11-14T09:09:16.034Z,10.10
2022-11-14T09:12:02.407Z,10.00
2022-11-14T09:14:49.251Z,9.83
2022-11-14T09:17:35.886Z,10.47
2022-11-14T09:20:28.409Z,10.00
2022-11-14T09:23:18.515Z,10.43
2022-11-14T09:26:06.195Z,10.00
2022-11-14T09:28:52.725Z,9.23
2022-11-14T09:31:39.006Z,10.50
2022-11-14T09:34:25.182Z,9.83
2022-11-14T09:37:13.348Z,10.00
2022-11-14T09:39:59.947Z,9.23
2022-11-14T09:43:02.390Z,9.87
2022-11-14T09:45:51.993Z,10.10
2022-11-14T09:48:38.708Z,9.57
2022-11-14T09:51:30.025Z,9.77
2022-11-14T09:54:23.437Z,10.43
2022-11-14T09:57:17.499Z,9.77
2022-11-14T10:00:13.005Z,9.77
2022-11-14T10:03:10.539Z,10.37
2022-11-14T10:06:11.310Z,10.30
2022-11-14T10:09:13.121Z,10.00
2022-11-14T10:12:09.291Z,10.67
2022-11-14T10:15:10.724Z,10.87
2022-11-14T10:18:08.421Z,10.30
2022-11-14T10:20:58.282Z,10.57
2022-11-14T10:23:55.129Z,11.20
2022-11-14T10:26:49.696Z,10.83
2022-11-14T10:29:53.005Z,11.13
2022-11-14T10:33:00.032Z,11.27
2022-11-14T10:35:53.912Z,10.90
2022-11-14T10:38:44.915Z,10.43
2022-11-14T10:41:55.484Z,11.40
2022-11-14T10:44:50.438Z,11.23
2022-11-14T10:47:41.578Z,10.60
2022-11-14T10:50:33.746Z,10.73
2022-11-14T10:53:27.822Z,10.90
2022-11-14T10:56:14.973Z,11.47
2022-11-14T10:59:01.310Z,10.93
2022-11-14T11:01:57.091Z,11.07
2022-11-14T11:04:45.218Z,11.43
2022-11-14T11:07:54.550Z,12.10
2022-11-14T11:11:03.390Z,11.20
2022-11-14T11:13:54.959Z,11.80
2022-11-14T11:16:41.533Z,12.43
2022-11-14T11:19:30.844Z,12.17
2022-11-14T11:22:30.357Z,11.97
2022-11-14T11:25:25.533Z,11.73
2022-11-14T11:28:14.880Z,11.60
2022-11-14T11:31:03.341Z,11.57
2022-11-14T11:33:50.357Z,12.70
2022-11-14T11:36:41.851Z,11.70
2022-11-14T11:39:30.733Z,12.43
2022-11-14T11:42:22.999Z,11.97
2022-11-14T11:45:17.450Z,12.17
2022-11-14T11:48:11.182Z,11.37
2022-11-14T11:50:58.373Z,12.00
2022-11-14T11:53:58.314Z,12.03
2022-11-14T11:56:48.617Z,11.53
2022-11-14T11:59:41.750Z,11.20
2022-11-14T12:02:29.364Z,11.03
2022-11-14T12:05:18.289Z,10.57
2022-11-14T12:08:09.517Z,10.40
2022-11-14T12:10:57.875Z,10.30
2022-11-14T12:14:08.872Z,10.17
2022-11-14T12:17:26.438Z,10.23
2022-11-14T12:20:36.374Z,9.83
2022-11-14T12:24:03.608Z,10.03
2022-11-14T12:27:03.888Z,10.07
2022-11-14T12:30:09.803Z,10.20
2022-11-14T12:33:00.969Z,10.03
2022-11-14T12:35:52.060Z,10.40
2022-11-14T12:38:43.991Z,9.90
2022-11-14T12:41:33.306Z,9.33
2022-11-14T12:44:34.858Z,9.77
2022-11-14T12:47:23.319Z,9.67
2022-11-14T12:50:35.012Z,9.33
2022-11-14T12:53:42.110Z,8.07
2022-11-14T12:56:54.250Z,8.10
2022-11-14T12:59:54.315Z,8.03
2022-11-14T13:03:19.464Z,8.13
2022-11-14T13:06:10.019Z,8.57
2022-11-14T13:09:13.946Z,8.63
2022-11-14T13:12:36.917Z,9.10
2022-11-14T13:15:49.261Z,8.97
2022-11-14T13:18:54.481Z,9.23
2022-11-14T13:22:22.045Z,9.10
2022-11-14T13:25:23.154Z,9.97
2022-11-14T13:28:48.011Z,10.43
2022-11-14T13:31:48.267Z,10.03
2022-11-14T13:34:41.223Z,10.43
2022-11-14T13:37:44.834Z,11.20
2022-11-14T13:40:37.774Z,10.63
2022-11-14T13:43:40.018Z,11.87
2022-11-14T13:46:42.408Z,12.23
2022-11-14T13:49:53.669Z,11.43
2022-11-14T13:52:43.065Z,12.37
2022-11-14T13:55:39.109Z,13.10
2022-11-14T13:58:48.574Z,12.73
2022-11-14T14:01:49.626Z,13.03
2022-11-14T14:04:50.955Z,12.20
2022-11-14T14:07:53.742Z,11.93
2022-11-14T14:10:43.899Z,13.33
2022-11-14T14:13:43.332Z,12.33
2022-11-14T14:16:37.467Z,12.07
2022-11-14T14:19:37.995Z,12.23
2022-11-14T14:22:33.344Z,12.90
2022-11-14T14:25:24.662Z,12.10
2022-11-14T14:28:18.989Z,11.57
2022-11-14T14:31:12.470Z,12.13
2022-11-14T14:33:59.138Z,11.40
2022-11-14T14:36:51.325Z,11.23
2022-11-14T14:39:38.969Z,11.63
2022-11-14T14:42:29.555Z,11.67
2022-11-14T14:45:22.042Z,11.63
2022-11-14T14:48:14.879Z,11.23
2022-11-14T14:51:02.966Z,11.23
2022-11-14T14:53:53.937Z,11.40
2022-11-14T14:56:54.178Z,11.33
2022-11-14T14:59:42.083Z,11.53
2022-11-14T15:02:29.703Z,11.13
2022-11-14T15:05:23.545Z,11.20
2022-11-14T15:08:14.999Z,11.57
2022-11-14T15:11:02.562Z,11.57
2022-11-14T15:13:53.786Z,11.10
2022-11-14T15:16:40.993Z,10.57
2022-11-14T15:19:35.697Z,10.73
2022-11-14T15:22:25.898Z,10.13
2022-11-14T15:25:21.162Z,11.10
2022-11-14T15:28:17.200Z,10.50
2022-11-14T15:31:06.291Z,10.30
2022-11-14T15:34:04.235Z,9.50
2022-11-14T15:37:20.711Z,9.13
2022-11-14T15:40:18.483Z,8.87
2022-11-14T15:43:36.794Z,8.93
2022-11-14T15:46:44.862Z,9.37
2022-11-14T15:49:31.387Z,8.80
2022-11-14T15:52:22.650Z,8.70
2022-11-14T15:55:15.495Z,8.27
2022-11-14T15:58:26.613Z,8.47
2022-11-14T16:01:17.029Z,8.63
2022-11-14T16:04:05.027Z,8.20
2022-11-14T16:06:51.706Z,8.10
2022-11-14T16:09:38.222Z,8.43
2022-11-14T16:12:24.763Z,7.97
2022-11-14T16:15:11.562Z,8.37
2022-11-14T16:17:58.413Z,8.27
2022-11-14T16:20:46.381Z,9.00
2022-11-14T16:23:33.071Z,9.63
2022-11-14T16:26:19.586Z,9.20
2022-11-14T16:29:06.022Z,8.60
2022-11-14T16:31:52.660Z,8.93
2022-11-14T16:34:39.552Z,9.60
2022-11-14T16:37:27.743Z,9.33
2022-11-14T16:40:15.975Z,9.83
2022-11-14T16:43:03.266Z,10.17
2022-11-14T16:45:49.698Z,9.67
2022-11-14T16:48:36.656Z,8.70
2022-11-14T16:51:46.614Z,9.87
2022-11-14T16:54:30.838Z,10.10
2022-11-14T16:57:17.570Z,9.97
2022-11-14T17:00:04.982Z,10.47
2022-11-14T17:02:51.492Z,10.13
2022-11-14T17:05:44.094Z,10.97
2022-11-14T17:08:30.834Z,10.33
2022-11-14T17:11:18.719Z,9.93
2022-11-14T17:14:05.102Z,10.30
2022-11-14T17:16:51.620Z,10.60
2022-11-14T17:19:45.519Z,10.37
2022-11-14T17:22:31.908Z,11.10
2022-11-14T17:25:18.321Z,12.23
2022-11-14T17:28:06.160Z,11.90
2022-11-14T17:30:52.624Z,12.27
2022-11-14T17:33:39.158Z,11.37
2022-11-14T17:36:28.333Z,11.60
2022-11-14T17:39:15.188Z,13.57
2022-11-14T17:42:01.791Z,13.57
2022-11-14T17:44:49.633Z,12.67
2022-11-14T17:47:36.814Z,12.10
2022-11-14T17:50:23.654Z,13.23
2022-11-14T17:53:10.208Z,13.43
2022-11-14T17:55:57.682Z,11.63
2022-11-14T17:58:44.657Z,11.70
2022-11-14T18:01:32.561Z,11.87
2022-11-14T18:04:18.903Z,13.10
2022-11-14T18:07:05.486Z,13.57
2022-11-14T18:09:51.829Z,12.80
2022-11-14T18:12:38.195Z,13.47
2022-11-14T18:15:27.909Z,12.60
2022-11-14T18:18:16.322Z,12.70
2022-11-14T18:21:07.633Z,13.03
2022-11-14T18:23:55.278Z,13.43
2022-11-14T18:26:42.341Z,13.50
2022-11-14T18:29:30.665Z,13.50
2022-11-14T18:32:17.967Z,13.87
2022-11-14T18:35:07.059Z,13.37
2022-11-14T18:37:53.518Z,13.03
2022-11-14T18:40:44.359Z,12.93
2022-11-14T18:43:32.396Z,12.63
2022-11-14T18:46:21.598Z,13.03
2022-11-14T18:49:08.238Z,13.10
2022-11-14T18:51:56.353Z,13.63
2022-11-14T18:54:43.036Z,13.13
2022-11-14T18:57:29.286Z,13.97
2022-11-14T19:00:16.740Z,13.33
2022-11-14T19:03:06.287Z,13.87
2022-11-14T19:05:53.299Z,14.93
2022-11-14T19:08:41.827Z,14.03
2022-11-14T19:11:46.307Z,14.17
2022-11-14T19:14:33.073Z,14.40
2022-11-14T19:17:22.351Z,14.67
2022-11-14T19:20:14.105Z,14.10
2022-11-14T19:23:00.832Z,16.30
2022-11-14T19:25:48.590Z,13.60
2022-11-14T19:28:35.019Z,13.70
2022-11-14T19:31:22.896Z,14.90
2022-11-14T19:34:10.440Z,14.40
2022-11-14T19:37:01.153Z,16.07
2022-11-14T19:39:49.675Z,14.83
2022-11-14T19:42:37.383Z,15.03
2022-11-14T19:45:23.875Z,15.70
2022-11-14T19:48:11.122Z,16.70
2022-11-14T19:51:02.052Z,14.50
2022-11-14T19:53:48.827Z,15.80
2022-11-14T19:56:35.224Z,14.00
2022-11-14T19:59:24.606Z,15.10
2022-11-14T20:02:14.077Z,15.57
2022-11-14T20:05:00.839Z,14.37
2022-11-14T20:07:47.109Z,13.97
2022-11-14T20:10:47.248Z,14.97
2022-11-14T20:13:34.967Z,14.40
2022-11-14T20:16:23.986Z,14.30
2022-11-14T20:19:10.257Z,13.67
2022-11-14T20:21:56.645Z,13.80
2022-11-14T20:24:42.839Z,14.30
2022-11-14T20:27:29.300Z,14.77
2022-11-14T20:30:16.352Z,13.37
2022-11-14T20:33:04.206Z,13.50
2022-11-14T20:35:50.565Z,14.00
2022-11-14T20:38:37.515Z,13.90
2022-11-14T20:41:23.913Z,14.43
2022-11-14T20:44:10.598Z,15.47
2022-11-14T20:46:57.162Z,15.50
2022-11-14T20:49:46.780Z,14.47
2022-11-14T20:52:33.344Z,15.10
2022-11-14T20:55:19.677Z,15.50
2022-11-14T20:58:06.413Z,15.63
2022-11-14T21:00:53.495Z,15.13
2022-11-14T21:03:40.579Z,15.50
2022-11-14T21:06:28.598Z,15.37
2022-11-14T21:09:15.382Z,15.77
2022-11-14T21:12:01.781Z,15.33
2022-11-14T21:14:48.486Z,15.33
2022-11-14T21:17:35.006Z,15.23
2022-11-14T21:20:21.536Z,16.60
2022-11-14T21:23:09.206Z,14.70
2022-11-14T21:26:02.950Z,15.30
2022-11-14T21:28:51.624Z,14.83
2022-11-14T21:31:39.823Z,15.77
2022-11-14T21:34:26.071Z,15.70
2022-11-14T21:37:12.614Z,14.03
2022-11-14T21:40:00.217Z,14.97
2022-11-14T21:42:46.554Z,15.40
2022-11-14T21:45:32.929Z,14.63
2022-11-14T21:48:19.127Z,15.97
2022-11-14T21:51:06.858Z,16.17
2022-11-14T21:53:55.469Z,15.10
2022-11-14T21:56:43.205Z,14.60
2022-11-14T21:59:31.333Z,14.33
2022-11-14T22:02:35.576Z,14.03
2022-11-14T22:05:22.322Z,15.03
2022-11-14T22:08:08.794Z,15.40
2022-11-14T22:10:55.177Z,15.57
2022-11-14T22:13:43.181Z,15.60
2022-11-14T22:16:29.947Z,15.60
2022-11-14T22:19:16.184Z,15.70
2022-11-14T22:22:02.665Z,15.33
2022-11-14T22:24:49.087Z,15.73
2022-11-14T22:27:35.394Z,16.23
2022-11-14T22:30:23.190Z,16.33
2022-11-14T22:33:09.770Z,16.00
2022-11-14T22:35:56.061Z,15.27
2022-11-14T22:38:43.405Z,15.13
2022-11-14T22:41:32.961Z,16.43
2022-11-14T22:44:20.118Z,15.70
2022-11-14T22:47:07.736Z,16.50
2022-11-14T22:49:54.094Z,16.73
2022-11-14T22:52:40.408Z,15.93
2022-11-14T22:55:26.791Z,16.80
2022-11-14T22:58:13.125Z,16.47
2022-11-14T23:00:59.625Z,15.97
2022-11-14T23:03:48.345Z,17.30
2022-11-14T23:06:35.526Z,16.63
2022-11-14T23:09:22.171Z,17.40
2022-11-14T23:12:08.656Z,16.67
2022-11-14T23:14:55.312Z,16.67
2022-11-14T23:17:41.981Z,15.97
2022-11-14T23:20:29.798Z,15.47
2022-11-14T23:23:16.717Z,15.57
2022-11-14T23:26:05.081Z,15.27
2022-11-14T23:28:51.595Z,15.70
2022-11-14T23:31:37.951Z,14.50
2022-11-14T23:34:24.394Z,14.67
2022-11-14T23:37:12.044Z,15.93
2022-11-14T23:39:58.717Z,15.73
2022-11-14T23:42:45.270Z,15.37
2022-11-14T23:45:31.590Z,14.97
2022-11-14T23:48:19.027Z,15.60
2022-11-14T23:51:05.720Z,14.93
2022-11-14T23:53:53.546Z,14.67
2022-11-14T23:56:39.754Z,14.87
2022-11-14T23:59:26.398Z,15.57
